createdAt,value
2019-03-30T00:05:29.388Z,9.28
2019-03-30T00:11:36.146Z,9.31
2019-03-30T00:17:42.758Z,9.32
2019-03-30T00:23:49.309Z,9.32
2019-03-30T00:29:55.865Z,9.23
2019-03-30T00:36:02.419Z,9.10
2019-03-30T00:42:09.783Z,8.90
2019-03-30T00:48:16.379Z,8.79
2019-03-30T00:54:22.896Z,8.76
2019-03-30T01:00:29.545Z,8.67
2019-03-30T01:06:36.307Z,8.57
2019-03-30T01:12:43.423Z,8.54
2019-03-30T01:18:50.341Z,8.48
2019-03-30T01:24:57.243Z,8.44
2019-03-30T01:31:04.586Z,8.40
2019-03-30T01:37:11.444Z,8.35
2019-03-30T01:43:18.175Z,8.30
2019-03-30T01:49:24.960Z,8.28
2019-03-30T01:55:31.749Z,8.23
2019-03-30T02:01:39.215Z,8.19
2019-03-30T02:07:45.815Z,8.15
2019-03-30T02:13:52.425Z,8.14
2019-03-30T02:19:58.972Z,8.04
2019-03-30T02:26:06.000Z,7.67
2019-03-30T02:32:12.549Z,7.69
2019-03-30T02:38:19.344Z,7.68
2019-03-30T02:44:25.978Z,7.67
2019-03-30T02:50:48.128Z,7.81
2019-03-30T02:56:40.859Z,7.69
2019-03-30T03:02:47.957Z,7.59
2019-03-30T03:08:54.513Z,7.62
2019-03-30T03:15:01.136Z,7.62
2019-03-30T03:21:08.735Z,7.59
2019-03-30T03:27:15.756Z,7.57
2019-03-30T03:33:22.301Z,7.47
2019-03-30T03:39:28.894Z,7.43
2019-03-30T03:45:35.655Z,7.45
2019-03-30T03:51:42.390Z,7.47
2019-03-30T03:57:49.596Z,7.56
2019-03-30T04:03:57.796Z,7.56
2019-03-30T04:10:06.799Z,7.53
2019-03-30T04:16:13.873Z,7.49
2019-03-30T04:22:20.688Z,7.50
2019-03-30T04:28:27.330Z,7.51
2019-03-30T04:34:33.871Z,7.52
2019-03-30T04:40:40.450Z,7.56
2019-03-30T04:46:47.123Z,7.52
2019-03-30T04:52:53.650Z,7.56
2019-03-30T04:59:00.277Z,7.55
2019-03-30T05:05:07.596Z,7.53
2019-03-30T05:11:14.133Z,7.55
2019-03-30T05:17:20.700Z,7.59
2019-03-30T05:23:27.434Z,7.62
2019-03-30T05:29:34.022Z,7.64
2019-03-30T05:35:40.729Z,7.70
2019-03-30T05:41:47.369Z,7.76
2019-03-30T05:47:53.964Z,7.88
2019-03-30T05:54:00.605Z,8.01
2019-03-30T06:00:09.430Z,8.09
2019-03-30T06:06:16.137Z,8.22
2019-03-30T06:12:22.680Z,8.30
2019-03-30T06:18:29.475Z,8.47
2019-03-30T06:24:36.095Z,8.63
2019-03-30T06:30:42.708Z,8.81
2019-03-30T06:36:49.449Z,8.98
2019-03-30T06:42:56.313Z,9.16
2019-03-30T06:49:02.883Z,9.36
2019-03-30T06:55:09.766Z,9.60
2019-03-30T07:01:16.397Z,9.86
2019-03-30T07:07:24.939Z,10.20
2019-03-30T07:13:34.320Z,10.70
2019-03-30T07:19:44.704Z,11.02
2019-03-30T07:25:51.419Z,11.25
2019-03-30T07:31:57.980Z,11.51
2019-03-30T07:38:04.562Z,11.74
2019-03-30T07:44:11.177Z,11.86
2019-03-30T07:50:17.836Z,12.07
2019-03-30T07:56:24.441Z,12.28
2019-03-30T08:02:31.086Z,12.36
2019-03-30T08:08:37.696Z,12.66
2019-03-30T08:14:45.253Z,12.79
2019-03-30T08:20:52.082Z,12.86
2019-03-30T08:26:58.600Z,13.08
2019-03-30T08:33:05.188Z,13.13
2019-03-30T08:39:11.867Z,13.27
2019-03-30T08:45:18.585Z,13.35
2019-03-30T08:51:25.295Z,13.48
2019-03-30T08:57:31.971Z,13.66
2019-03-30T09:03:38.730Z,13.80
2019-03-30T09:09:45.393Z,13.93
2019-03-30T09:15:52.179Z,14.08
2019-03-30T09:21:58.715Z,14.30
2019-03-30T09:28:05.231Z,14.43
2019-03-30T09:34:11.911Z,14.61
2019-03-30T09:40:18.523Z,14.72
2019-03-30T09:46:25.056Z,14.86
2019-03-30T09:52:31.588Z,15.05
2019-03-30T09:58:38.139Z,15.27
2019-03-30T10:04:44.774Z,15.30
2019-03-30T10:10:51.362Z,15.40
2019-03-30T10:16:58.017Z,15.60
2019-03-30T10:23:04.706Z,15.71
2019-03-30T10:29:11.247Z,15.80
2019-03-30T10:35:17.824Z,15.93
2019-03-30T10:41:24.516Z,16.10
2019-03-30T10:47:30.990Z,16.25
2019-03-30T10:53:37.557Z,16.41
2019-03-30T10:59:44.210Z,16.57
2019-03-30T11:05:50.920Z,16.72
2019-03-30T11:11:57.690Z,16.89
2019-03-30T11:18:04.476Z,17.08
2019-03-30T11:24:11.067Z,17.21
2019-03-30T11:30:17.599Z,17.38
2019-03-30T11:36:24.311Z,17.51
2019-03-30T11:42:30.870Z,17.81
2019-03-30T11:48:37.907Z,18.00
2019-03-30T11:54:44.549Z,18.21
2019-03-30T12:00:51.385Z,18.25
2019-03-30T12:06:58.096Z,18.47
2019-03-30T12:13:04.646Z,18.50
2019-03-30T12:19:11.309Z,18.80
2019-03-30T12:25:17.810Z,18.94
2019-03-30T12:31:24.365Z,18.94
2019-03-30T12:37:30.956Z,19.03
2019-03-30T12:43:39.169Z,19.08
2019-03-30T12:49:46.146Z,19.14
2019-03-30T12:55:53.227Z,19.24
2019-03-30T13:02:00.329Z,19.41
2019-03-30T13:08:08.769Z,19.46
2019-03-30T13:14:15.461Z,19.58
2019-03-30T13:20:22.333Z,19.68
2019-03-30T13:26:29.393Z,19.82
2019-03-30T13:32:36.987Z,19.99
2019-03-30T13:38:43.630Z,20.16
2019-03-30T13:44:50.341Z,20.24
2019-03-30T13:50:57.006Z,20.35
2019-03-30T13:57:03.486Z,20.44
2019-03-30T14:03:10.059Z,20.48
2019-03-30T14:09:16.592Z,20.57
2019-03-30T14:15:23.580Z,20.47
2019-03-30T14:21:30.453Z,20.17
2019-03-30T14:27:37.145Z,19.74
2019-03-30T14:33:43.974Z,19.73
2019-03-30T14:39:53.100Z,20.01
2019-03-30T14:46:02.416Z,19.90
2019-03-30T14:52:09.219Z,19.79
2019-03-30T14:58:15.828Z,20.00
2019-03-30T15:04:22.620Z,20.48
2019-03-30T15:10:29.195Z,20.38
2019-03-30T15:16:35.895Z,20.87
2019-03-30T15:22:42.614Z,21.29
2019-03-30T15:28:49.522Z,21.76
2019-03-30T15:34:58.404Z,21.49
2019-03-30T15:41:04.721Z,21.49
2019-03-30T15:47:12.015Z,21.71
2019-03-30T15:53:18.539Z,22.18
2019-03-30T15:59:25.461Z,21.78
2019-03-30T16:05:32.529Z,21.11
2019-03-30T16:11:39.154Z,21.05
2019-03-30T16:17:45.728Z,20.88
2019-03-30T16:23:52.620Z,20.78
2019-03-30T16:29:59.185Z,20.72
2019-03-30T16:36:05.810Z,20.50
2019-03-30T16:42:12.403Z,20.34
2019-03-30T16:48:19.021Z,20.29
2019-03-30T16:54:25.699Z,20.12
2019-03-30T17:00:36.184Z,20.07
2019-03-30T17:06:42.864Z,19.90
2019-03-30T17:12:49.403Z,19.79
2019-03-30T17:18:56.023Z,19.66
2019-03-30T17:25:04.186Z,19.48
2019-03-30T17:31:10.869Z,19.33
2019-03-30T17:37:17.564Z,19.19
2019-03-30T17:43:24.182Z,18.96
2019-03-30T17:49:30.756Z,18.79
2019-03-30T17:55:37.311Z,18.59
2019-03-30T18:01:44.139Z,18.46
2019-03-30T18:07:50.777Z,18.31
2019-03-30T18:13:57.485Z,18.09
2019-03-30T18:20:04.340Z,17.86
2019-03-30T18:26:11.056Z,17.71
2019-03-30T18:32:18.524Z,17.53
2019-03-30T18:38:25.985Z,17.38
2019-03-30T18:44:33.093Z,17.20
2019-03-30T18:50:41.687Z,16.94
2019-03-30T18:56:51.642Z,16.68
2019-03-30T19:02:58.781Z,16.41
2019-03-30T19:09:08.737Z,16.03
2019-03-30T19:15:16.322Z,15.64
2019-03-30T19:21:24.106Z,15.29
2019-03-30T19:27:30.672Z,15.09
2019-03-30T19:33:37.391Z,14.88
2019-03-30T19:39:44.122Z,14.64
2019-03-30T19:45:50.825Z,14.27
2019-03-30T19:51:57.530Z,13.96
2019-03-30T19:58:04.222Z,13.82
2019-03-30T20:04:10.999Z,13.82
2019-03-30T20:10:17.745Z,13.62
2019-03-30T20:16:24.432Z,13.56
2019-03-30T20:22:31.046Z,13.67
2019-03-30T20:28:37.948Z,13.68
2019-03-30T20:34:44.634Z,13.62
2019-03-30T20:40:53.041Z,13.47
2019-03-30T20:47:01.971Z,13.49
2019-03-30T20:53:09.018Z,13.41
2019-03-30T20:59:15.886Z,13.39
2019-03-30T21:05:23.738Z,13.56
2019-03-30T21:11:30.435Z,13.57
2019-03-30T21:17:37.204Z,13.63
2019-03-30T21:23:43.804Z,13.63
2019-03-30T21:29:54.857Z,13.72
2019-03-30T21:35:59.157Z,13.64
2019-03-30T21:42:06.077Z,13.51
2019-03-30T21:48:12.869Z,13.21
2019-03-30T21:54:19.598Z,13.13
2019-03-30T22:00:54.270Z,12.93
2019-03-30T22:07:01.491Z,12.88
2019-03-30T22:13:08.864Z,12.91
2019-03-30T22:19:15.660Z,12.90
2019-03-30T22:25:22.308Z,12.86
2019-03-30T22:31:28.938Z,12.85
2019-03-30T22:37:35.673Z,12.73
2019-03-30T22:43:42.352Z,12.61
2019-03-30T22:49:49.110Z,12.58
2019-03-30T22:55:55.802Z,12.63
2019-03-30T23:02:02.548Z,12.57
2019-03-30T23:08:09.523Z,12.33
2019-03-30T23:14:16.357Z,12.22
2019-03-30T23:20:23.111Z,12.12
2019-03-30T23:26:29.789Z,11.95
2019-03-30T23:32:36.390Z,11.86
2019-03-30T23:38:42.985Z,11.77
2019-03-30T23:44:49.739Z,11.45
2019-03-30T23:50:56.279Z,11.39
2019-03-30T23:57:03.003Z,11.37
